sensor_id;sensor_type;location;lat;lon;timestamp;pressure;altitude;pressure_sealevel;temperature
65569;BMP180;52211;50.154;8.682;2023-08-20T00:00:15;100425.00;;;28.60
65569;BMP180;52211;50.154;8.682;2023-08-20T00:02:43;100426.00;;;28.60
65569;BMP180;52211;50.154;8.682;2023-08-20T00:05:15;100429.00;;;28.60
65569;BMP180;52211;50.154;8.682;2023-08-20T00:07:42;100428.00;;;28.60
65569;BMP180;52211;50.154;8.682;2023-08-20T00:10:14;100426.00;;;28.60
65569;BMP180;52211;50.154;8.682;2023-08-20T00:12:43;100433.00;;;28.60
65569;BMP180;52211;50.154;8.682;2023-08-20T00:15:12;100435.00;;;28.50
65569;BMP180;52211;50.154;8.682;2023-08-20T00:17:42;100442.00;;;28.50
65569;BMP180;52211;50.154;8.682;2023-08-20T00:20:13;100435.00;;;28.50
65569;BMP180;52211;50.154;8.682;2023-08-20T00:22:41;100444.00;;;28.50
65569;BMP180;52211;50.154;8.682;2023-08-20T00:25:10;100443.00;;;28.50
65569;BMP180;52211;50.154;8.682;2023-08-20T00:27:42;100449.00;;;28.50
65569;BMP180;52211;50.154;8.682;2023-08-20T00:30:10;100441.00;;;28.40
65569;BMP180;52211;50.154;8.682;2023-08-20T00:32:39;100445.00;;;28.40
65569;BMP180;52211;50.154;8.682;2023-08-20T00:35:07;100438.00;;;28.40
65569;BMP180;52211;50.154;8.682;2023-08-20T00:37:35;100438.00;;;28.40
65569;BMP180;52211;50.154;8.682;2023-08-20T00:40:06;100434.00;;;28.40
65569;BMP180;52211;50.154;8.682;2023-08-20T00:42:34;100441.00;;;28.30
65569;BMP180;52211;50.154;8.682;2023-08-20T00:45:07;100441.00;;;28.30
65569;BMP180;52211;50.154;8.682;2023-08-20T00:47:35;100437.00;;;28.30
65569;BMP180;52211;50.154;8.682;2023-08-20T00:50:09;100435.00;;;28.30
65569;BMP180;52211;50.154;8.682;2023-08-20T00:52:40;100437.00;;;28.20
65569;BMP180;52211;50.154;8.682;2023-08-20T00:55:14;100441.00;;;28.20
65569;BMP180;52211;50.154;8.682;2023-08-20T00:57:42;100432.00;;;28.20
65569;BMP180;52211;50.154;8.682;2023-08-20T01:00:15;100434.00;;;28.20
65569;BMP180;52211;50.154;8.682;2023-08-20T01:02:42;100436.00;;;28.10
65569;BMP180;52211;50.154;8.682;2023-08-20T01:05:15;100436.00;;;28.10
65569;BMP180;52211;50.154;8.682;2023-08-20T01:08:25;100435.00;;;28.00
65569;BMP180;52211;50.154;8.682;2023-08-20T01:11:10;100425.00;;;28.00
65569;BMP180;52211;50.154;8.682;2023-08-20T01:13:41;100427.00;;;28.00
65569;BMP180;52211;50.154;8.682;2023-08-20T01:16:10;100415.00;;;28.00
65569;BMP180;52211;50.154;8.682;2023-08-20T01:18:44;100422.00;;;27.90
65569;BMP180;52211;50.154;8.682;2023-08-20T01:24:05;100428.00;;;27.80
65569;BMP180;52211;50.154;8.682;2023-08-20T01:29:21;100428.00;;;27.80
65569;BMP180;52211;50.154;8.682;2023-08-20T01:31:49;100437.00;;;27.70
65569;BMP180;52211;50.154;8.682;2023-08-20T01:34:21;100438.00;;;27.70
65569;BMP180;52211;50.154;8.682;2023-08-20T01:36:50;100438.00;;;27.70
65569;BMP180;52211;50.154;8.682;2023-08-20T01:39:17;100433.00;;;27.60
65569;BMP180;52211;50.154;8.682;2023-08-20T01:41:47;100432.00;;;27.60
65569;BMP180;52211;50.154;8.682;2023-08-20T01:44:16;100436.00;;;27.60
65569;BMP180;52211;50.154;8.682;2023-08-20T01:46:52;100431.00;;;27.60
65569;BMP180;52211;50.154;8.682;2023-08-20T01:49:22;100438.00;;;27.60
65569;BMP180;52211;50.154;8.682;2023-08-20T01:51:51;100439.00;;;27.50
65569;BMP180;52211;50.154;8.682;2023-08-20T01:54:20;100433.00;;;27.50
65569;BMP180;52211;50.154;8.682;2023-08-20T01:56:49;100436.00;;;27.50
65569;BMP180;52211;50.154;8.682;2023-08-20T01:59:21;100435.00;;;27.40
65569;BMP180;52211;50.154;8.682;2023-08-20T02:01:51;100440.00;;;27.40
65569;BMP180;52211;50.154;8.682;2023-08-20T02:04:18;100438.00;;;27.40
65569;BMP180;52211;50.154;8.682;2023-08-20T02:06:47;100444.00;;;27.40
65569;BMP180;52211;50.154;8.682;2023-08-20T02:09:17;100441.00;;;27.40
65569;BMP180;52211;50.154;8.682;2023-08-20T02:11:46;100444.00;;;27.40
65569;BMP180;52211;50.154;8.682;2023-08-20T02:14:13;100442.00;;;27.40
65569;BMP180;52211;50.154;8.682;2023-08-20T02:16:40;100446.00;;;27.30
65569;BMP180;52211;50.154;8.682;2023-08-20T02:19:07;100450.00;;;27.30
65569;BMP180;52211;50.154;8.682;2023-08-20T02:21:38;100450.00;;;27.30
65569;BMP180;52211;50.154;8.682;2023-08-20T02:24:10;100444.00;;;27.30
65569;BMP180;52211;50.154;8.682;2023-08-20T02:26:39;100446.00;;;27.30
65569;BMP180;52211;50.154;8.682;2023-08-20T02:29:05;100451.00;;;27.20
65569;BMP180;52211;50.154;8.682;2023-08-20T02:31:32;100460.00;;;27.20
65569;BMP180;52211;50.154;8.682;2023-08-20T02:34:04;100453.00;;;27.20
65569;BMP180;52211;50.154;8.682;2023-08-20T02:36:35;100447.00;;;27.20
65569;BMP180;52211;50.154;8.682;2023-08-20T02:39:04;100448.00;;;27.10
65569;BMP180;52211;50.154;8.682;2023-08-20T02:41:37;100436.00;;;27.10
65569;BMP180;52211;50.154;8.682;2023-08-20T02:44:08;100439.00;;;27.10
65569;BMP180;52211;50.154;8.682;2023-08-20T02:46:40;100442.00;;;27.10
65569;BMP180;52211;50.154;8.682;2023-08-20T02:49:07;100432.00;;;27.10
65569;BMP180;52211;50.154;8.682;2023-08-20T02:51:36;100442.00;;;27.10
65569;BMP180;52211;50.154;8.682;2023-08-20T02:54:05;100436.00;;;27.10
65569;BMP180;52211;50.154;8.682;2023-08-20T02:56:32;100439.00;;;27.10
65569;BMP180;52211;50.154;8.682;2023-08-20T02:58:59;100436.00;;;27.00
65569;BMP180;52211;50.154;8.682;2023-08-20T03:01:28;100441.00;;;27.00
65569;BMP180;52211;50.154;8.682;2023-08-20T03:03:56;100438.00;;;27.00
65569;BMP180;52211;50.154;8.682;2023-08-20T03:06:25;100436.00;;;27.00
65569;BMP180;52211;50.154;8.682;2023-08-20T03:08:52;100441.00;;;27.00
65569;BMP180;52211;50.154;8.682;2023-08-20T03:11:21;100431.00;;;27.00
65569;BMP180;52211;50.154;8.682;2023-08-20T03:13:50;100418.00;;;27.00
65569;BMP180;52211;50.154;8.682;2023-08-20T03:16:17;100419.00;;;27.00
65569;BMP180;52211;50.154;8.682;2023-08-20T03:18:46;100417.00;;;26.90
65569;BMP180;52211;50.154;8.682;2023-08-20T03:21:15;100415.00;;;26.90
65569;BMP180;52211;50.154;8.682;2023-08-20T03:23:44;100414.00;;;26.90
65569;BMP180;52211;50.154;8.682;2023-08-20T03:26:11;100416.00;;;26.90
65569;BMP180;52211;50.154;8.682;2023-08-20T03:28:40;100426.00;;;26.90
65569;BMP180;52211;50.154;8.682;2023-08-20T03:31:09;100420.00;;;26.90
65569;BMP180;52211;50.154;8.682;2023-08-20T03:33:40;100419.00;;;26.90
65569;BMP180;52211;50.154;8.682;2023-08-20T03:36:07;100414.00;;;26.90
65569;BMP180;52211;50.154;8.682;2023-08-20T03:38:37;100417.00;;;26.90
65569;BMP180;52211;50.154;8.682;2023-08-20T03:41:06;100421.00;;;26.90
65569;BMP180;52211;50.154;8.682;2023-08-20T03:43:35;100431.00;;;26.90
65569;BMP180;52211;50.154;8.682;2023-08-20T03:46:02;100446.00;;;26.90
65569;BMP180;52211;50.154;8.682;2023-08-20T03:48:32;100427.00;;;26.90
65569;BMP180;52211;50.154;8.682;2023-08-20T03:51:01;100430.00;;;26.80
65569;BMP180;52211;50.154;8.682;2023-08-20T03:53:31;100430.00;;;26.80
65569;BMP180;52211;50.154;8.682;2023-08-20T03:55:59;100435.00;;;26.80
65569;BMP180;52211;50.154;8.682;2023-08-20T03:58:26;100434.00;;;26.80
65569;BMP180;52211;50.154;8.682;2023-08-20T04:00:55;100440.00;;;26.80
65569;BMP180;52211;50.154;8.682;2023-08-20T04:03:22;100448.00;;;26.80
65569;BMP180;52211;50.154;8.682;2023-08-20T04:05:50;100455.00;;;26.80
65569;BMP180;52211;50.154;8.682;2023-08-20T04:08:20;100455.00;;;26.80
65569;BMP180;52211;50.154;8.682;2023-08-20T04:10:48;100454.00;;;26.80
65569;BMP180;52211;50.154;8.682;2023-08-20T04:13:15;100472.00;;;26.80
65569;BMP180;52211;50.154;8.682;2023-08-20T04:15:45;100474.00;;;26.80
65569;BMP180;52211;50.154;8.682;2023-08-20T04:18:15;100478.00;;;26.80
65569;BMP180;52211;50.154;8.682;2023-08-20T04:20:47;100485.00;;;26.80
65569;BMP180;52211;50.154;8.682;2023-08-20T04:23:16;100472.00;;;26.80
65569;BMP180;52211;50.154;8.682;2023-08-20T04:25:49;100478.00;;;26.80
65569;BMP180;52211;50.154;8.682;2023-08-20T04:28:16;100470.00;;;26.80
65569;BMP180;52211;50.154;8.682;2023-08-20T04:30:48;100476.00;;;26.80
65569;BMP180;52211;50.154;8.682;2023-08-20T04:33:18;100470.00;;;26.80
65569;BMP180;52211;50.154;8.682;2023-08-20T04:35:46;100460.00;;;26.80
65569;BMP180;52211;50.154;8.682;2023-08-20T04:38:17;100471.00;;;26.80
65569;BMP180;52211;50.154;8.682;2023-08-20T04:40:48;100466.00;;;26.80
65569;BMP180;52211;50.154;8.682;2023-08-20T04:43:16;100468.00;;;26.80
65569;BMP180;52211;50.154;8.682;2023-08-20T04:45:43;100470.00;;;26.80
65569;BMP180;52211;50.154;8.682;2023-08-20T04:48:15;100469.00;;;26.80
65569;BMP180;52211;50.154;8.682;2023-08-20T04:50:41;100466.00;;;26.90
65569;BMP180;52211;50.154;8.682;2023-08-20T04:53:11;100465.00;;;26.90
65569;BMP180;52211;50.154;8.682;2023-08-20T04:55:38;100471.00;;;26.90
65569;BMP180;52211;50.154;8.682;2023-08-20T04:58:10;100467.00;;;26.90
65569;BMP180;52211;50.154;8.682;2023-08-20T05:00:37;100482.00;;;26.90
65569;BMP180;52211;50.154;8.682;2023-08-20T05:03:07;100482.00;;;26.90
65569;BMP180;52211;50.154;8.682;2023-08-20T05:05:36;100486.00;;;26.90
65569;BMP180;52211;50.154;8.682;2023-08-20T05:08:04;100491.00;;;26.90
65569;BMP180;52211;50.154;8.682;2023-08-20T05:10:36;100495.00;;;27.00
65569;BMP180;52211;50.154;8.682;2023-08-20T05:13:06;100499.00;;;27.00
65569;BMP180;52211;50.154;8.682;2023-08-20T05:15:36;100492.00;;;27.00
65569;BMP180;52211;50.154;8.682;2023-08-20T05:18:03;100491.00;;;27.00
65569;BMP180;52211;50.154;8.682;2023-08-20T05:20:35;100495.00;;;27.00
65569;BMP180;52211;50.154;8.682;2023-08-20T05:23:04;100493.00;;;27.00
65569;BMP180;52211;50.154;8.682;2023-08-20T05:25:32;100503.00;;;27.00
65569;BMP180;52211;50.154;8.682;2023-08-20T05:28:01;100508.00;;;27.00
65569;BMP180;52211;50.154;8.682;2023-08-20T05:30:29;100497.00;;;27.00
65569;BMP180;52211;50.154;8.682;2023-08-20T05:32:56;100509.00;;;27.10
65569;BMP180;52211;50.154;8.682;2023-08-20T05:35:23;100504.00;;;27.10
65569;BMP180;52211;50.154;8.682;2023-08-20T05:37:55;100509.00;;;27.10
65569;BMP180;52211;50.154;8.682;2023-08-20T05:40:29;100511.00;;;27.10
65569;BMP180;52211;50.154;8.682;2023-08-20T05:42:55;100514.00;;;27.10
65569;BMP180;52211;50.154;8.682;2023-08-20T05:45:23;100523.00;;;27.10
65569;BMP180;52211;50.154;8.682;2023-08-20T05:47:53;100531.00;;;27.20
65569;BMP180;52211;50.154;8.682;2023-08-20T05:50:26;100529.00;;;27.20
65569;BMP180;52211;50.154;8.682;2023-08-20T05:52:55;100525.00;;;27.20
65569;BMP180;52211;50.154;8.682;2023-08-20T05:55:27;100524.00;;;27.30
65569;BMP180;52211;50.154;8.682;2023-08-20T05:57:57;100530.00;;;27.30
65569;BMP180;52211;50.154;8.682;2023-08-20T06:00:26;100533.00;;;27.30
65569;BMP180;52211;50.154;8.682;2023-08-20T06:02:58;100535.00;;;27.40
65569;BMP180;52211;50.154;8.682;2023-08-20T06:05:27;100530.00;;;27.40
65569;BMP180;52211;50.154;8.682;2023-08-20T06:07:54;100536.00;;;27.50
65569;BMP180;52211;50.154;8.682;2023-08-20T06:10:21;100540.00;;;27.50
65569;BMP180;52211;50.154;8.682;2023-08-20T06:12:51;100530.00;;;27.50
65569;BMP180;52211;50.154;8.682;2023-08-20T06:15:18;100522.00;;;27.60
65569;BMP180;52211;50.154;8.682;2023-08-20T06:17:50;100530.00;;;27.60
65569;BMP180;52211;50.154;8.682;2023-08-20T06:20:19;100532.00;;;27.60
65569;BMP180;52211;50.154;8.682;2023-08-20T06:22:48;100542.00;;;27.70
65569;BMP180;52211;50.154;8.682;2023-08-20T06:25:15;100548.00;;;27.70
65569;BMP180;52211;50.154;8.682;2023-08-20T06:27:42;100557.00;;;27.80
65569;BMP180;52211;50.154;8.682;2023-08-20T06:30:12;100555.00;;;27.90
65569;BMP180;52211;50.154;8.682;2023-08-20T06:32:39;100547.00;;;27.90
65569;BMP180;52211;50.154;8.682;2023-08-20T06:35:13;100557.00;;;27.90
65569;BMP180;52211;50.154;8.682;2023-08-20T06:37:42;100561.00;;;28.00
65569;BMP180;52211;50.154;8.682;2023-08-20T06:40:14;100563.00;;;28.00
65569;BMP180;52211;50.154;8.682;2023-08-20T06:42:46;100557.00;;;28.10
65569;BMP180;52211;50.154;8.682;2023-08-20T06:45:15;100564.00;;;28.10
65569;BMP180;52211;50.154;8.682;2023-08-20T06:47:42;100566.00;;;28.10
65569;BMP180;52211;50.154;8.682;2023-08-20T06:50:09;100566.00;;;28.20
65569;BMP180;52211;50.154;8.682;2023-08-20T06:52:39;100565.00;;;28.20
65569;BMP180;52211;50.154;8.682;2023-08-20T06:55:08;100562.00;;;28.20
65569;BMP180;52211;50.154;8.682;2023-08-20T06:57:35;100560.00;;;28.20
65569;BMP180;52211;50.154;8.682;2023-08-20T07:00:03;100560.00;;;28.30
65569;BMP180;52211;50.154;8.682;2023-08-20T07:02:31;100560.00;;;28.30
65569;BMP180;52211;50.154;8.682;2023-08-20T07:04:58;100570.00;;;28.30
65569;BMP180;52211;50.154;8.682;2023-08-20T07:07:25;100579.00;;;28.30
65569;BMP180;52211;50.154;8.682;2023-08-20T07:09:55;100567.00;;;28.40
65569;BMP180;52211;50.154;8.682;2023-08-20T07:12:22;100558.00;;;28.40
65569;BMP180;52211;50.154;8.682;2023-08-20T07:14:53;100563.00;;;28.40
65569;BMP180;52211;50.154;8.682;2023-08-20T07:17:23;100563.00;;;28.50
65569;BMP180;52211;50.154;8.682;2023-08-20T07:19:50;100564.00;;;28.50
65569;BMP180;52211;50.154;8.682;2023-08-20T07:22:23;100571.00;;;28.60
65569;BMP180;52211;50.154;8.682;2023-08-20T07:24:50;100580.00;;;28.60
65569;BMP180;52211;50.154;8.682;2023-08-20T07:27:19;100576.00;;;28.70
65569;BMP180;52211;50.154;8.682;2023-08-20T07:29:46;100575.00;;;28.70
65569;BMP180;52211;50.154;8.682;2023-08-20T07:32:13;100577.00;;;28.70
65569;BMP180;52211;50.154;8.682;2023-08-20T07:34:42;100583.00;;;28.70
65569;BMP180;52211;50.154;8.682;2023-08-20T07:37:11;100580.00;;;28.70
65569;BMP180;52211;50.154;8.682;2023-08-20T07:39:41;100592.00;;;28.80
65569;BMP180;52211;50.154;8.682;2023-08-20T07:42:08;100581.00;;;28.80
65569;BMP180;52211;50.154;8.682;2023-08-20T07:44:37;100581.00;;;28.80
65569;BMP180;52211;50.154;8.682;2023-08-20T07:47:08;100582.00;;;28.90
65569;BMP180;52211;50.154;8.682;2023-08-20T07:49:37;100589.00;;;28.90
65569;BMP180;52211;50.154;8.682;2023-08-20T07:52:04;100583.00;;;28.90
65569;BMP180;52211;50.154;8.682;2023-08-20T07:54:33;100577.00;;;28.90
65569;BMP180;52211;50.154;8.682;2023-08-20T07:57:00;100575.00;;;28.90
65569;BMP180;52211;50.154;8.682;2023-08-20T07:59:29;100582.00;;;29.00
65569;BMP180;52211;50.154;8.682;2023-08-20T08:01:58;100596.00;;;29.00
65569;BMP180;52211;50.154;8.682;2023-08-20T08:04:25;100595.00;;;29.00
65569;BMP180;52211;50.154;8.682;2023-08-20T08:06:54;100586.00;;;29.00
65569;BMP180;52211;50.154;8.682;2023-08-20T08:09:31;100577.00;;;29.00
65569;BMP180;52211;50.154;8.682;2023-08-20T08:12:01;100582.00;;;29.10
65569;BMP180;52211;50.154;8.682;2023-08-20T08:14:35;100579.00;;;29.10
65569;BMP180;52211;50.154;8.682;2023-08-20T08:17:05;100590.00;;;29.20
65569;BMP180;52211;50.154;8.682;2023-08-20T08:19:35;100587.00;;;29.20
65569;BMP180;52211;50.154;8.682;2023-08-20T08:22:02;100594.00;;;29.30
65569;BMP180;52211;50.154;8.682;2023-08-20T08:24:34;100590.00;;;29.30
65569;BMP180;52211;50.154;8.682;2023-08-20T08:27:03;100593.00;;;29.30
65569;BMP180;52211;50.154;8.682;2023-08-20T08:29:30;100595.00;;;29.40
65569;BMP180;52211;50.154;8.682;2023-08-20T08:31:57;100598.00;;;29.40
65569;BMP180;52211;50.154;8.682;2023-08-20T08:34:24;100607.00;;;29.50
65569;BMP180;52211;50.154;8.682;2023-08-20T08:36:51;100605.00;;;29.50
65569;BMP180;52211;50.154;8.682;2023-08-20T08:39:18;100606.00;;;29.50
65569;BMP180;52211;50.154;8.682;2023-08-20T08:41:54;100607.00;;;29.60
65569;BMP180;52211;50.154;8.682;2023-08-20T08:44:25;100606.00;;;29.60
65569;BMP180;52211;50.154;8.682;2023-08-20T08:46:52;100601.00;;;29.70
65569;BMP180;52211;50.154;8.682;2023-08-20T08:49:26;100603.00;;;29.70
65569;BMP180;52211;50.154;8.682;2023-08-20T08:51:57;100607.00;;;29.80
65569;BMP180;52211;50.154;8.682;2023-08-20T08:54:29;100608.00;;;29.90
65569;BMP180;52211;50.154;8.682;2023-08-20T08:56:56;100613.00;;;29.90
65569;BMP180;52211;50.154;8.682;2023-08-20T08:59:26;100607.00;;;30.00
65569;BMP180;52211;50.154;8.682;2023-08-20T09:01:54;100606.00;;;30.00
65569;BMP180;52211;50.154;8.682;2023-08-20T09:04:28;100601.00;;;30.10
65569;BMP180;52211;50.154;8.682;2023-08-20T09:06:55;100606.00;;;30.20
65569;BMP180;52211;50.154;8.682;2023-08-20T09:09:30;100607.00;;;30.30
65569;BMP180;52211;50.154;8.682;2023-08-20T09:11:57;100601.00;;;30.30
65569;BMP180;52211;50.154;8.682;2023-08-20T09:14:30;100597.00;;;30.40
65569;BMP180;52211;50.154;8.682;2023-08-20T09:17:01;100599.00;;;30.40
65569;BMP180;52211;50.154;8.682;2023-08-20T09:19:36;100595.00;;;30.50
65569;BMP180;52211;50.154;8.682;2023-08-20T09:22:06;100599.00;;;30.60
65569;BMP180;52211;50.154;8.682;2023-08-20T09:24:47;100595.00;;;30.60
65569;BMP180;52211;50.154;8.682;2023-08-20T09:27:14;100589.00;;;30.70
65569;BMP180;52211;50.154;8.682;2023-08-20T09:29:47;100596.00;;;30.70
65569;BMP180;52211;50.154;8.682;2023-08-20T09:32:27;100589.00;;;30.80
65569;BMP180;52211;50.154;8.682;2023-08-20T09:34:56;100594.00;;;30.80
65569;BMP180;52211;50.154;8.682;2023-08-20T09:37:26;100583.00;;;30.90
65569;BMP180;52211;50.154;8.682;2023-08-20T09:39:55;100588.00;;;31.00
65569;BMP180;52211;50.154;8.682;2023-08-20T09:42:25;100586.00;;;31.00
65569;BMP180;52211;50.154;8.682;2023-08-20T09:44:53;100589.00;;;31.10
65569;BMP180;52211;50.154;8.682;2023-08-20T09:47:26;100590.00;;;31.20
65569;BMP180;52211;50.154;8.682;2023-08-20T09:49:56;100589.00;;;31.20
65569;BMP180;52211;50.154;8.682;2023-08-20T09:52:42;100589.00;;;31.30
65569;BMP180;52211;50.154;8.682;2023-08-20T09:55:17;100592.00;;;31.30
65569;BMP180;52211;50.154;8.682;2023-08-20T09:57:50;100588.00;;;31.40
65569;BMP180;52211;50.154;8.682;2023-08-20T10:00:18;100594.00;;;31.50
65569;BMP180;52211;50.154;8.682;2023-08-20T10:02:46;100595.00;;;31.50
65569;BMP180;52211;50.154;8.682;2023-08-20T10:05:13;100590.00;;;31.60
65569;BMP180;52211;50.154;8.682;2023-08-20T10:07:43;100592.00;;;31.70
65569;BMP180;52211;50.154;8.682;2023-08-20T10:10:12;100596.00;;;31.70
65569;BMP180;52211;50.154;8.682;2023-08-20T10:12:43;100589.00;;;31.80
65569;BMP180;52211;50.154;8.682;2023-08-20T10:15:17;100590.00;;;31.90
65569;BMP180;52211;50.154;8.682;2023-08-20T10:17:47;100589.00;;;31.90
65569;BMP180;52211;50.154;8.682;2023-08-20T10:20:19;100589.00;;;32.00
65569;BMP180;52211;50.154;8.682;2023-08-20T10:22:52;100598.00;;;32.00
65569;BMP180;52211;50.154;8.682;2023-08-20T10:25:24;100592.00;;;32.10
65569;BMP180;52211;50.154;8.682;2023-08-20T10:27:53;100590.00;;;32.20
65569;BMP180;52211;50.154;8.682;2023-08-20T10:30:26;100592.00;;;32.30
65569;BMP180;52211;50.154;8.682;2023-08-20T10:32:56;100596.00;;;32.30
65569;BMP180;52211;50.154;8.682;2023-08-20T10:35:54;100591.00;;;32.40
65569;BMP180;52211;50.154;8.682;2023-08-20T10:38:22;100592.00;;;32.50
65569;BMP180;52211;50.154;8.682;2023-08-20T10:40:58;100590.00;;;32.60
65569;BMP180;52211;50.154;8.682;2023-08-20T10:43:59;100582.00;;;32.70
65569;BMP180;52211;50.154;8.682;2023-08-20T10:46:29;100576.00;;;32.80
65569;BMP180;52211;50.154;8.682;2023-08-20T10:49:03;100583.00;;;32.90
65569;BMP180;52211;50.154;8.682;2023-08-20T10:51:39;100578.00;;;33.00
65569;BMP180;52211;50.154;8.682;2023-08-20T10:54:11;100577.00;;;33.10
65569;BMP180;52211;50.154;8.682;2023-08-20T10:56:43;100571.00;;;33.20
65569;BMP180;52211;50.154;8.682;2023-08-20T10:59:27;100570.00;;;33.40
65569;BMP180;52211;50.154;8.682;2023-08-20T11:01:58;100572.00;;;33.50
65569;BMP180;52211;50.154;8.682;2023-08-20T11:04:31;100573.00;;;33.60
65569;BMP180;52211;50.154;8.682;2023-08-20T11:07:06;100573.00;;;33.80
65569;BMP180;52211;50.154;8.682;2023-08-20T11:09:36;100575.00;;;33.90
65569;BMP180;52211;50.154;8.682;2023-08-20T11:12:09;100573.00;;;34.00
65569;BMP180;52211;50.154;8.682;2023-08-20T11:14:39;100572.00;;;34.20
65569;BMP180;52211;50.154;8.682;2023-08-20T11:17:07;100576.00;;;34.30
65569;BMP180;52211;50.154;8.682;2023-08-20T11:19:39;100577.00;;;34.40
65569;BMP180;52211;50.154;8.682;2023-08-20T11:22:09;100575.00;;;34.60
65569;BMP180;52211;50.154;8.682;2023-08-20T11:24:42;100579.00;;;34.70
65569;BMP180;52211;50.154;8.682;2023-08-20T11:27:09;100579.00;;;34.90
65569;BMP180;52211;50.154;8.682;2023-08-20T11:29:36;100578.00;;;35.10
65569;BMP180;52211;50.154;8.682;2023-08-20T11:32:09;100583.00;;;35.20
65569;BMP180;52211;50.154;8.682;2023-08-20T11:34:38;100580.00;;;35.40
65569;BMP180;52211;50.154;8.682;2023-08-20T11:37:08;100577.00;;;35.60
65569;BMP180;52211;50.154;8.682;2023-08-20T11:39:37;100581.00;;;35.80
65569;BMP180;52211;50.154;8.682;2023-08-20T11:42:09;100575.00;;;35.90
65569;BMP180;52211;50.154;8.682;2023-08-20T11:44:47;100570.00;;;36.10
65569;BMP180;52211;50.154;8.682;2023-08-20T11:47:19;100576.00;;;36.30
65569;BMP180;52211;50.154;8.682;2023-08-20T11:50:02;100574.00;;;36.40
65569;BMP180;52211;50.154;8.682;2023-08-20T11:52:36;100569.00;;;36.70
65569;BMP180;52211;50.154;8.682;2023-08-20T11:55:04;100566.00;;;36.80
65569;BMP180;52211;50.154;8.682;2023-08-20T11:57:33;100569.00;;;37.00
65569;BMP180;52211;50.154;8.682;2023-08-20T12:00:05;100565.00;;;37.20
65569;BMP180;52211;50.154;8.682;2023-08-20T12:02:55;100568.00;;;37.40
65569;BMP180;52211;50.154;8.682;2023-08-20T12:05:28;100568.00;;;37.60
65569;BMP180;52211;50.154;8.682;2023-08-20T12:08:00;100566.00;;;37.70
65569;BMP180;52211;50.154;8.682;2023-08-20T12:10:30;100565.00;;;37.90
65569;BMP180;52211;50.154;8.682;2023-08-20T12:12:58;100563.00;;;38.10
65569;BMP180;52211;50.154;8.682;2023-08-20T12:15:27;100563.00;;;38.20
65569;BMP180;52211;50.154;8.682;2023-08-20T12:18:05;100558.00;;;38.40
65569;BMP180;52211;50.154;8.682;2023-08-20T12:20:36;100560.00;;;38.60
65569;BMP180;52211;50.154;8.682;2023-08-20T12:23:07;100561.00;;;38.80
65569;BMP180;52211;50.154;8.682;2023-08-20T12:25:39;100553.00;;;39.00
65569;BMP180;52211;50.154;8.682;2023-08-20T12:28:06;100557.00;;;39.20
65569;BMP180;52211;50.154;8.682;2023-08-20T12:30:34;100556.00;;;39.40
65569;BMP180;52211;50.154;8.682;2023-08-20T12:33:07;100551.00;;;39.60
65569;BMP180;52211;50.154;8.682;2023-08-20T12:35:40;100544.00;;;39.80
65569;BMP180;52211;50.154;8.682;2023-08-20T12:38:07;100545.00;;;40.00
65569;BMP180;52211;50.154;8.682;2023-08-20T12:40:34;100540.00;;;40.20
65569;BMP180;52211;50.154;8.682;2023-08-20T12:43:02;100545.00;;;40.40
65569;BMP180;52211;50.154;8.682;2023-08-20T12:45:30;100549.00;;;40.60
65569;BMP180;52211;50.154;8.682;2023-08-20T12:47:56;100545.00;;;40.80
65569;BMP180;52211;50.154;8.682;2023-08-20T12:50:30;100542.00;;;41.00
65569;BMP180;52211;50.154;8.682;2023-08-20T12:52:57;100537.00;;;41.20
65569;BMP180;52211;50.154;8.682;2023-08-20T12:55:24;100534.00;;;41.40
65569;BMP180;52211;50.154;8.682;2023-08-20T12:57:57;100537.00;;;41.50
65569;BMP180;52211;50.154;8.682;2023-08-20T13:00:27;100534.00;;;41.70
65569;BMP180;52211;50.154;8.682;2023-08-20T13:02:57;100535.00;;;41.90
65569;BMP180;52211;50.154;8.682;2023-08-20T13:05:27;100527.00;;;42.10
65569;BMP180;52211;50.154;8.682;2023-08-20T13:07:57;100536.00;;;42.30
65569;BMP180;52211;50.154;8.682;2023-08-20T13:10:27;100530.00;;;42.50
65569;BMP180;52211;50.154;8.682;2023-08-20T13:13:03;100521.00;;;42.60
65569;BMP180;52211;50.154;8.682;2023-08-20T13:15:33;100525.00;;;42.80
65569;BMP180;52211;50.154;8.682;2023-08-20T13:18:06;100525.00;;;42.90
65569;BMP180;52211;50.154;8.682;2023-08-20T13:20:43;100519.00;;;43.10
65569;BMP180;52211;50.154;8.682;2023-08-20T13:23:12;100525.00;;;43.30
65569;BMP180;52211;50.154;8.682;2023-08-20T13:25:42;100528.00;;;43.50
65569;BMP180;52211;50.154;8.682;2023-08-20T13:28:15;100525.00;;;43.60
65569;BMP180;52211;50.154;8.682;2023-08-20T13:30:44;100523.00;;;43.70
65569;BMP180;52211;50.154;8.682;2023-08-20T13:33:16;100530.00;;;43.90
65569;BMP180;52211;50.154;8.682;2023-08-20T13:35:45;100528.00;;;44.00
65569;BMP180;52211;50.154;8.682;2023-08-20T13:38:16;100528.00;;;44.00
65569;BMP180;52211;50.154;8.682;2023-08-20T13:40:49;100533.00;;;44.10
65569;BMP180;52211;50.154;8.682;2023-08-20T13:43:16;100531.00;;;44.20
65569;BMP180;52211;50.154;8.682;2023-08-20T13:45:45;100526.00;;;44.30
65569;BMP180;52211;50.154;8.682;2023-08-20T13:48:12;100536.00;;;44.30
65569;BMP180;52211;50.154;8.682;2023-08-20T13:50:41;100531.00;;;44.20
65569;BMP180;52211;50.154;8.682;2023-08-20T13:53:11;100530.00;;;44.10
65569;BMP180;52211;50.154;8.682;2023-08-20T13:55:42;100522.00;;;44.20
65569;BMP180;52211;50.154;8.682;2023-08-20T13:58:09;100516.00;;;44.20
65569;BMP180;52211;50.154;8.682;2023-08-20T14:00:36;100519.00;;;44.30
65569;BMP180;52211;50.154;8.682;2023-08-20T14:03:05;100526.00;;;44.30
65569;BMP180;52211;50.154;8.682;2023-08-20T14:05:35;100524.00;;;44.20
65569;BMP180;52211;50.154;8.682;2023-08-20T14:08:04;100520.00;;;44.20
65569;BMP180;52211;50.154;8.682;2023-08-20T14:10:34;100522.00;;;44.30
65569;BMP180;52211;50.154;8.682;2023-08-20T14:13:04;100512.00;;;44.40
65569;BMP180;52211;50.154;8.682;2023-08-20T14:15:38;100515.00;;;44.50
65569;BMP180;52211;50.154;8.682;2023-08-20T14:18:07;100513.00;;;44.60